Time;durP1;ratioP1;P1;durP2;ratioP2;P2;SDS_P1;SDS_P2;PMS_P1;PMS_P2;Temp;Humidity;BMP_temperature;BMP_pressure;BME280_temperature;BME280_humidity;BME280_pressure;Samples;Min_cycle;Max_cycle;Signal;HPM_P1;HPM_P2
2023/01/06 00:00:22;;;;;;;4.60;3.00;;;11.60;99.90;;;;;;21083041;28;20666;-78
2023/01/06 00:10:23;;;;;;;6.43;3.33;;;11.70;99.90;;;;;;21083576;28;20276;-77
2023/01/06 00:20:25;;;;;;;7.73;4.10;;;11.80;99.90;;;;;;21082569;28;20689;-77
2023/01/06 00:30:27;;;;;;;5.50;3.90;;;11.80;99.90;;;;;;21080767;28;20239;-77
2023/01/06 00:40:29;;;;;;;8.83;4.60;;;11.80;99.90;;;;;;21081176;28;20209;-77
2023/01/06 00:50:30;;;;;;;7.57;5.63;;;11.90;99.90;;;;;;21080369;28;20235;-77
2023/01/06 01:00:32;;;;;;;11.77;6.30;;;11.80;99.90;;;;;;21081728;28;20203;-77
2023/01/06 01:10:34;;;;;;;9.00;6.63;;;11.80;99.90;;;;;;21081295;28;20697;-76
2023/01/06 01:20:36;;;;;;;9.73;6.70;;;11.80;99.90;;;;;;21080652;28;20206;-76
2023/01/06 01:30:38;;;;;;;10.40;6.10;;;11.80;99.90;;;;;;21079960;28;20241;-76
2023/01/06 01:40:46;;;;;;;7.00;5.60;;;11.90;99.90;;;;;;21079574;28;20210;-76
2023/01/06 01:50:52;;;;;;;6.50;4.83;;;11.90;99.90;;;;;;21079069;28;20256;-76
2023/01/06 02:00:54;;;;;;;6.20;4.37;;;12.00;99.90;;;;;;21079102;28;20611;-76
2023/01/06 02:10:55;;;;;;;4.37;3.53;;;11.90;99.90;;;;;;21078009;28;20281;-75
2023/01/06 02:21:15;;;;;;;4.50;3.87;;;12.00;99.90;;;;;;21078146;28;20202;-76
2023/01/06 02:31:46;;;;;;;8.17;3.83;;;12.00;99.90;;;;;;21077427;28;20295;-76
2023/01/06 02:42:10;;;;;;;7.73;4.37;;;12.00;99.90;;;;;;21077065;28;20203;-74
2023/01/06 02:52:35;;;;;;;6.27;4.10;;;12.10;99.90;;;;;;21076602;28;20366;-74
2023/01/06 03:02:40;;;;;;;6.93;4.30;;;12.10;99.90;;;;;;21090361;28;20222;-74
2023/01/06 03:12:51;;;;;;;4.63;4.07;;;12.10;99.90;;;;;;21090402;28;20242;-75
2023/01/06 03:22:53;;;;;;;4.77;3.90;;;12.10;99.90;;;;;;21090351;28;20535;-75
2023/01/06 03:33:14;;;;;;;7.43;3.90;;;12.10;99.90;;;;;;21088767;28;20234;-75
2023/01/06 03:43:33;;;;;;;5.30;4.30;;;12.10;99.90;;;;;;21088187;28;20726;-75
2023/01/06 03:53:58;;;;;;;5.33;3.93;;;12.20;99.90;;;;;;21087689;28;20242;-74
2023/01/06 04:04:00;;;;;;;6.80;4.60;;;12.10;99.90;;;;;;21086408;28;20203;-73
2023/01/06 04:14:02;;;;;;;7.50;4.70;;;12.10;99.90;;;;;;21085663;28;20230;-74
2023/01/06 04:24:04;;;;;;;6.13;4.00;;;12.10;99.90;;;;;;21085461;28;20552;-73
2023/01/06 04:34:06;;;;;;;7.07;3.40;;;12.10;99.90;;;;;;21084058;28;20235;-73
2023/01/06 04:44:08;;;;;;;3.67;3.23;;;12.10;99.90;;;;;;21083329;28;20735;-73
2023/01/06 04:54:09;;;;;;;6.43;3.30;;;12.10;99.90;;;;;;21083347;28;20246;-75
2023/01/06 05:04:11;;;;;;;3.57;3.13;;;12.10;99.90;;;;;;21081701;28;20248;-74
2023/01/06 05:14:13;;;;;;;3.77;3.20;;;12.10;99.90;;;;;;21081214;28;20232;-75
2023/01/06 05:24:14;;;;;;;4.90;3.27;;;12.10;99.90;;;;;;21080497;28;20210;-76
2023/01/06 05:34:16;;;;;;;5.47;3.60;;;12.10;99.90;;;;;;21079820;28;20241;-74
2023/01/06 05:44:18;;;;;;;8.63;6.87;;;12.10;99.90;;;;;;21079338;28;20202;-74
2023/01/06 05:54:21;;;;;;;5.80;4.07;;;12.10;99.90;;;;;;21078771;28;20253;-73
2023/01/06 06:04:23;;;;;;;4.93;4.43;;;12.10;99.90;;;;;;21078433;28;20209;-73
2023/01/06 06:14:25;;;;;;;4.00;3.40;;;12.10;99.90;;;;;;21078060;28;20594;-76
2023/01/06 06:24:27;;;;;;;4.43;3.50;;;12.10;99.90;;;;;;21076869;28;20297;-73
2023/01/06 06:34:28;;;;;;;4.73;3.53;;;12.10;99.90;;;;;;21087423;28;20280;-74
2023/01/06 06:44:30;;;;;;;5.53;3.43;;;12.10;99.90;;;;;;21092801;28;20217;-73
2023/01/06 06:54:32;;;;;;;5.17;3.30;;;12.20;99.90;;;;;;21091003;28;20646;-74
2023/01/06 07:04:33;;;;;;;5.57;3.70;;;12.20;99.90;;;;;;21091403;28;20248;-75
2023/01/06 07:14:35;;;;;;;4.20;3.80;;;12.20;99.90;;;;;;21090607;28;20234;-75
2023/01/06 07:24:37;;;;;;;6.23;4.77;;;12.20;99.90;;;;;;21090197;28;20214;-74
2023/01/06 07:34:38;;;;;;;5.03;4.53;;;12.10;99.90;;;;;;21089059;28;20241;-74
2023/01/06 07:44:40;;;;;;;5.30;4.80;;;12.10;99.90;;;;;;21086922;28;20206;-75
2023/01/06 07:54:42;;;;;;;4.73;4.13;;;12.10;99.90;;;;;;21088232;28;20238;-75
2023/01/06 08:04:43;;;;;;;3.23;2.30;;;12.00;99.90;;;;;;21086375;28;20616;-76
2023/01/06 08:14:45;;;;;;;1.97;1.50;;;11.80;99.90;;;;;;21086316;28;20238;-78
2023/01/06 08:24:47;;;;;;;1.70;1.00;;;11.80;99.90;;;;;;21085472;28;20264;-77
2023/01/06 08:34:48;;;;;;;1.20;1.10;;;11.90;99.90;;;;;;21085421;28;20651;-77
2023/01/06 08:44:50;;;;;;;1.20;1.10;;;11.80;99.90;;;;;;21083208;28;20661;-77
2023/01/06 08:54:52;;;;;;;1.30;1.20;;;12.00;99.90;;;;;;21081679;28;20291;-74
2023/01/06 09:04:53;;;;;;;1.60;1.50;;;12.30;99.90;;;;;;21081819;28;20331;-76
2023/01/06 09:14:55;;;;;;;1.63;1.53;;;12.20;99.90;;;;;;21081036;28;20234;-76
2023/01/06 09:24:57;;;;;;;1.47;1.23;;;12.20;99.90;;;;;;21141236;28;20541;-78
2023/01/06 09:34:59;;;;;;;3.77;1.53;;;12.20;99.90;;;;;;21163962;28;20239;-76
2023/01/06 09:45:06;;;;;;;2.40;1.40;;;11.70;99.90;;;;;;21163571;28;20230;-76
2023/01/06 09:55:17;;;;;;;1.97;1.77;;;11.40;99.90;;;;;;21161908;28;20243;-73
2023/01/06 10:05:31;;;;;;;4.90;1.80;;;11.30;99.90;;;;;;21151252;28;20208;-80
2023/01/06 10:16:11;;;;;;;1.87;1.40;;;11.40;99.90;;;;;;21179285;28;20229;-75
2023/01/06 10:26:28;;;;;;;2.20;1.30;;;11.60;99.90;;;;;;21169460;28;20278;-78
2023/01/06 10:36:38;;;;;;;2.27;1.47;;;11.70;99.90;;;;;;21166636;28;20233;-76
2023/01/06 10:46:40;;;;;;;1.50;1.10;;;11.70;99.90;;;;;;21123256;28;20219;-77
2023/01/06 10:56:55;;;;;;;1.47;1.10;;;11.80;99.90;;;;;;21092188;28;20269;-80
2023/01/06 11:07:00;;;;;;;0.87;0.80;;;11.90;99.90;;;;;;21138627;28;20197;-80
2023/01/06 11:17:06;;;;;;;1.07;0.97;;;11.90;99.90;;;;;;21158691;28;20236;-82
2023/01/06 11:27:15;;;;;;;1.20;1.10;;;11.90;99.90;;;;;;21174628;28;20258;-79
2023/01/06 11:37:38;;;;;;;1.40;1.00;;;11.90;99.90;;;;;;21174733;28;20603;-73
2023/01/06 11:47:40;;;;;;;1.83;1.20;;;11.80;99.50;;;;;;21174606;28;20712;-79
2023/01/06 11:58:10;;;;;;;1.63;1.00;;;11.80;99.60;;;;;;21171146;28;20216;-79
2023/01/06 12:08:22;;;;;;;0.83;0.83;;;11.70;99.90;;;;;;21155679;28;20235;-75
2023/01/06 12:18:28;;;;;;;2.73;2.10;;;11.80;99.90;;;;;;21169987;28;20225;-76
2023/01/06 12:28:38;;;;;;;2.57;1.80;;;12.00;99.90;;;;;;21168307;28;20234;-78
2023/01/06 12:38:53;;;;;;;2.03;1.73;;;12.00;99.90;;;;;;21168838;28;20204;-88
2023/01/06 12:49:03;;;;;;;2.13;1.73;;;12.00;99.90;;;;;;21167336;28;20294;-83
2023/01/06 12:59:15;;;;;;;2.87;1.37;;;11.90;99.90;;;;;;21168430;28;20203;-80
2023/01/06 13:09:41;;;;;;;3.60;1.80;;;12.00;99.90;;;;;;21170897;28;20233;-88
2023/01/06 13:19:50;;;;;;;2.13;1.50;;;12.00;99.90;;;;;;21171825;28;20270;-79
2023/01/06 13:30:18;;;;;;;2.10;1.70;;;12.00;99.90;;;;;;21168871;28;20234;-81
2023/01/06 13:40:28;;;;;;;3.97;2.10;;;12.00;99.90;;;;;;21146174;28;20212;-81
2023/01/06 13:50:31;;;;;;;1.50;1.40;;;12.00;99.90;;;;;;21164087;28;20605;-83
2023/01/06 14:00:41;;;;;;;3.07;1.37;;;12.00;99.70;;;;;;21144668;28;20203;-78
2023/01/06 14:10:45;;;;;;;2.07;1.70;;;11.90;99.80;;;;;;21162233;28;20273;-84
2023/01/06 14:20:57;;;;;;;1.50;1.40;;;11.90;99.70;;;;;;21163291;28;20232;-78
2023/01/06 14:31:30;;;;;;;3.17;2.03;;;11.90;99.50;;;;;;21161800;28;20241;-80
2023/01/06 14:41:39;;;;;;;1.93;1.50;;;11.80;99.10;;;;;;21161227;28;20206;-78
2023/01/06 14:51:42;;;;;;;1.90;1.30;;;11.80;99.10;;;;;;21165083;28;20244;-82
2023/01/06 15:01:56;;;;;;;1.50;1.40;;;11.80;98.70;;;;;;21179136;28;20205;-78
2023/01/06 15:11:57;;;;;;;3.37;1.40;;;11.80;98.80;;;;;;21160835;28;20287;-78
2023/01/06 15:22:06;;;;;;;1.97;1.40;;;11.80;98.50;;;;;;21176499;28;20212;-78
2023/01/06 15:32:11;;;;;;;1.83;1.60;;;11.80;98.60;;;;;;21176136;28;20279;-80
2023/01/06 15:42:16;;;;;;;4.27;1.73;;;11.80;98.60;;;;;;21178203;28;20214;-79
2023/01/06 15:52:26;;;;;;;4.07;2.03;;;11.80;98.20;;;;;;21172806;28;20249;-82
2023/01/06 16:02:30;;;;;;;3.03;1.70;;;11.70;98.20;;;;;;21171249;28;20647;-83
2023/01/06 16:12:37;;;;;;;1.97;1.50;;;11.70;98.10;;;;;;21170322;27;20240;-79
2023/01/06 16:22:46;;;;;;;8.13;2.40;;;11.70;98.30;;;;;;21170666;28;20210;-79
2023/01/06 16:32:51;;;;;;;1.90;1.50;;;11.80;98.30;;;;;;21169259;28;20230;-80
2023/01/06 16:42:59;;;;;;;28.97;18.77;;;11.80;98.50;;;;;;21168306;28;20269;-79
2023/01/06 16:53:15;;;;;;;3.60;1.70;;;11.80;98.50;;;;;;21168177;28;20245;-81
2023/01/06 17:03:19;;;;;;;2.23;1.73;;;11.80;98.20;;;;;;21167968;28;20252;-81
2023/01/06 17:13:33;;;;;;;2.30;1.93;;;11.80;98.40;;;;;;21167067;28;20233;-81
2023/01/06 17:23:46;;;;;;;4.43;3.00;;;11.80;98.00;;;;;;21165009;28;20215;-75
2023/01/06 17:33:49;;;;;;;4.67;2.30;;;11.80;98.00;;;;;;21164604;28;20287;-79
2023/01/06 17:43:50;;;;;;;2.30;1.83;;;11.80;98.20;;;;;;21163704;28;20210;-75
2023/01/06 18:04:13;;;;;;;2.37;1.73;;;11.70;97.90;;;;;;21162952;28;20205;-77
2023/01/06 18:14:27;;;;;;;2.70;1.93;;;12.70;98.70;;;;;;21162377;28;20242;-74
2023/01/06 18:24:36;;;;;;;1.67;1.50;;;11.70;97.80;;;;;;21164444;28;20218;-74
2023/01/06 18:34:41;;;;;;;2.80;2.00;;;11.70;98.10;;;;;;21178929;28;20682;-74
2023/01/06 18:44:43;;;;;;;2.30;1.87;;;11.70;98.20;;;;;;21177700;28;20251;-73
2023/01/06 18:54:45;;;;;;;2.90;1.90;;;11.70;97.90;;;;;;21176599;28;20240;-75
2023/01/06 19:04:47;;;;;;;3.23;1.80;;;11.80;98.20;;;;;;21175872;28;20656;-75
2023/01/06 19:14:51;;;;;;;1.93;1.60;;;11.80;98.20;;;;;;21173467;28;20276;-79
2023/01/06 19:24:58;;;;;;;2.93;1.80;;;11.70;98.10;;;;;;21172049;28;20209;-82
2023/01/06 19:35:00;;;;;;;2.50;1.70;;;11.60;98.20;;;;;;21153152;28;20310;-83
2023/01/06 19:45:25;;;;;;;2.37;1.67;;;11.70;98.20;;;;;;21170175;28;20717;-80
2023/01/06 19:55:31;;;;;;;1.87;1.60;;;11.70;98.20;;;;;;21169625;28;20237;-79
2023/01/06 20:05:33;;;;;;;2.43;1.77;;;11.70;98.10;;;;;;21169063;28;20208;-78
2023/01/06 20:15:34;;;;;;;1.60;1.50;;;11.70;98.00;;;;;;21167634;28;20282;-78
2023/01/06 20:25:36;;;;;;;1.70;1.50;;;11.70;98.00;;;;;;21167302;28;20205;-77
2023/01/06 20:35:38;;;;;;;2.00;1.57;;;11.70;97.60;;;;;;21166699;28;20260;-81
2023/01/06 20:45:39;;;;;;;6.20;4.53;;;11.70;97.90;;;;;;21177628;28;20627;-80
2023/01/06 20:55:41;;;;;;;3.47;1.40;;;11.70;97.90;;;;;;21169535;28;20237;-79
2023/01/06 21:05:43;;;;;;;1.20;1.10;;;11.70;97.90;;;;;;21163272;28;20211;-76
2023/01/06 21:15:44;;;;;;;2.17;1.50;;;11.70;97.70;;;;;;21164304;28;20632;-78
2023/01/06 21:25:46;;;;;;;1.87;1.60;;;11.80;98.00;;;;;;21162275;28;20262;-79
2023/01/06 21:35:48;;;;;;;2.30;1.40;;;11.80;98.00;;;;;;21162034;28;20237;-80
2023/01/06 21:45:49;;;;;;;2.10;1.57;;;11.90;98.10;;;;;;21160625;28;20631;-81
2023/01/06 21:55:51;;;;;;;2.00;1.50;;;11.90;98.20;;;;;;21161063;28;20240;-80
2023/01/06 22:05:56;;;;;;;1.80;1.37;;;11.80;98.00;;;;;;21160221;28;20207;-80
2023/01/06 22:15:58;;;;;;;1.50;1.40;;;11.80;98.00;;;;;;21159545;28;20267;-79
2023/01/06 22:25:59;;;;;;;2.27;1.60;;;11.70;98.10;;;;;;21159474;28;20270;-79
2023/01/06 22:36:01;;;;;;;2.90;1.30;;;11.70;98.10;;;;;;21158159;28;20236;-79
2023/01/06 22:46:03;;;;;;;2.13;1.60;;;11.80;98.00;;;;;;21146059;28;20228;-76
2023/01/06 22:56:08;;;;;;;2.77;1.50;;;11.70;98.00;;;;;;21157784;28;20640;-77
2023/01/06 23:06:12;;;;;;;1.53;1.40;;;11.70;98.00;;;;;;21156602;28;20624;-81
2023/01/06 23:16:17;;;;;;;1.50;1.30;;;11.70;97.90;;;;;;21148939;28;20227;-78
2023/01/06 23:26:25;;;;;;;1.83;1.33;;;13.10;98.50;;;;;;21172922;28;20216;-78
2023/01/06 23:36:29;;;;;;;1.40;1.30;;;11.60;97.80;;;;;;21176799;28;20282;-78
2023/01/06 23:46:37;;;;;;;1.60;1.23;;;11.60;97.70;;;;;;21171193;28;20229;-77
2023/01/06 23:56:39;;;;;;;1.40;1.30;;;11.50;97.60;;;;;;21172264;28;20236;-77
